Nearby METAR Reports

 

KMTN - Baltimore/Martin, Maryland, USA
Distance from station: SSE 8mi, 13km
Updated: Wed, 23-Apr-2014 1:45pm EDT
Mostly cloudy
Mostly cloudy
 Wind from W
Wind: W 28 mph , 44 km/h, Gust: 33 mph , 54 km/h
Temperature: 61°F , 16°C
Dew Point: 39°F , 4°C
Humidity: 45%
Barometer: 29.79 inHg , 1008.8 hPa
Clouds: Mostly cloudy
Visibility: 10 miles , 16 km
Cloud details: Mostly cloudy 5000 ft
2014/04/23 17:45 KMTN 231745Z 28024G29KT 10SM BKN050 16/04 A2979
KDMH - Baltimore/Dwntwn, Maryland, USA
Distance from station: SW 12mi, 19km
Updated: Wed, 23-Apr-2014 1:54pm EDT

 
Temperature: 57°F , 14°C
Dew Point: 34°F , 1°C
Humidity: 41%
Barometer: 29.80 inHg , 1009.1 hPa
2014/04/23 17:54 KDMH 231754Z AUTO 14/01 A2980 RMK AO1 SLP091 T01440011 10144 20100 53002
 
KBWI - Balto/Wash Intl, Maryland, USA
Distance from station: SSW 20mi, 33km
Updated: Wed, 23-Apr-2014 1:54pm EDT
Partly cloudy
Partly cloudy
 Wind from NW
Wind: NW 22 mph , 35 km/h, Gust: 31 mph , 50 km/h
Temperature: 57°F , 14°C
Dew Point: 36°F , 2°C
Humidity: 44%
Barometer: 29.79 inHg , 1008.8 hPa
Clouds: Partly cloudy
Visibility: 10 miles , 16 km
Cloud details: Partly cloudy 4800 ft
2014/04/23 17:54 KBWI 231754Z 31019G27KT 10SM SCT048 14/02 A2979 RMK AO2 PK WND 29027/1754 SLP087 T01390017 10139 20094 55000
KDMW - Carroll Cnty, Maryland, USA
Distance from station: WNW 30mi, 48km
Updated: Wed, 23-Apr-2014 2:10pm EDT
Mostly cloudy
Mostly cloudy
 Wind from WNW
Wind: WNW 17 mph , 28 km/h, Gust: 26 mph , 43 km/h
Temperature: 54°F , 12°C
Dew Point: 36°F , 2°C
Humidity: 51%
Barometer: 29.82 inHg , 1009.8 hPa
Clouds: Mostly cloudy
Visibility: 10 miles , 16 km
Cloud details: Mostly cloudy 4100 ft
2014/04/23 18:10 KDMW 231810Z AUTO 30015G23KT 10SM BKN041 12/02 A2982 RMK AO2
 
KNAK - Annapolis/Naval, Maryland, USA
Distance from station: S 30mi, 48km
Updated: Wed, 23-Apr-2014 1:54pm EDT
Mostly cloudy
Mostly cloudy
 Wind from NW
Wind: NW 20 mph , 31 km/h, Gust: 29 mph , 46 km/h
Temperature: 55°F , 13°C
Dew Point: 36°F , 2°C
Humidity: 47%
Barometer: 29.79 inHg , 1008.8 hPa
Clouds: Mostly cloudy
Visibility: 10 miles , 16 km
Cloud details: Mostly cloudy 5000 ft
2014/04/23 17:54 KNAK 231754Z AUTO 31017G25KT 10SM BKN050 13/02 A2979 RMK AO2 PK WND 33026/1740 SLP089 T01330022 10133 20106 55000
KW29 - Stevensville, Maryland, USA
Distance from station: SSE 31mi, 50km
Updated: Wed, 23-Apr-2014 2:13pm EDT
Clear
Clear
 Wind from NW
Wind: NW 16 mph , 26 km/h, Gust: 25 mph , 41 km/h
Temperature: 57°F , 14°C
Dew Point: 34°F , 1°C
Humidity: 41%
Barometer: 29.79 inHg , 1008.8 hPa
Clouds: Clear
Visibility: 10 miles , 16 km
2014/04/23 18:13 KW29 231813Z AUTO 31014G22KT 10SM CLR 14/01 A2979 RMK AO1
 
KCGS - College Park, Maryland, USA
Distance from station: SW 38mi, 61km
Updated: Wed, 23-Apr-2014 2:10pm EDT
Partly cloudy
Partly cloudy
 Wind from NW
Wind: NW 17 mph , 28 km/h, Gust: 25 mph , 41 km/h
Temperature: 59°F , 15°C
Dew Point: 36°F , 2°C
Humidity: 42%
Barometer: 29.82 inHg , 1009.8 hPa
Clouds: Partly cloudy
Visibility: 10 miles , 16 km
Cloud details: Partly cloudy 4800 ft
2014/04/23 18:10 KCGS 231810Z AUTO 32015G22KT 10SM SCT048 15/02 A2982 RMK AO1
KGAI - Gaithersburg, Maryland, USA
Distance from station: WSW 40mi, 65km
Updated: Wed, 23-Apr-2014 2:15pm EDT
Mostly cloudy
Mostly cloudy
 Wind from NW
Wind: NW 18 mph , 30 km/h, Gust: 24 mph , 39 km/h
Temperature: 55°F , 13°C
Dew Point: 34°F , 1°C
Humidity: 44%
Barometer: 29.85 inHg , 1010.8 hPa
Clouds: Mostly cloudy
Visibility: 10 miles , 16 km
Cloud details: Mostly cloudy 4500 ft
Mostly cloudy 5000 ft
2014/04/23 18:15 KGAI 231815Z AUTO 31016G21KT 10SM BKN045 BKN050 13/01 A2985 RMK AO1
 
KTHV - York, Pennsylvania, USA
Distance from station: NNW 40mi, 65km
Updated: Wed, 23-Apr-2014 1:53pm EDT
Overcast
Overcast
 Wind from NW
Wind: NW 17 mph , 28 km/h, Gust: 29 mph , 46 km/h
Temperature: 54°F , 12°C
Dew Point: 36°F , 2°C
Humidity: 51%
Barometer: 29.81 inHg , 1009.5 hPa
Clouds: Overcast
Visibility: 10 miles , 16 km
Cloud details: Overcast 4300 ft
2014/04/23 17:53 KTHV 231753Z AUTO 31015G25KT 10SM OVC043 12/02 A2981 RMK AO2 SLP096 T01170017 10128 20078 53006
KFDK - Frederick, Maryland, USA
Distance from station: W 47mi, 75km
Updated: Wed, 23-Apr-2014 1:52pm EDT
Partly cloudy
Partly cloudy
 Wind from NNW
Wind: NNW 20 mph , 31 km/h, Gust: 29 mph , 46 km/h
Temperature: 55°F , 13°C
Dew Point: 39°F , 4°C
Humidity: 55%
Barometer: 29.87 inHg , 1011.5 hPa
Clouds: Partly cloudy
Visibility: 10 miles , 16 km
Cloud details: Partly cloudy 4600 ft
Partly cloudy 5000 ft
2014/04/23 17:52 KFDK 231752Z 33017G25KT 10SM SCT046 SCT050 13/04 A2987
 
KESN - Easton/Newnam, Maryland, USA
Distance from station: SSE 48mi, 78km
Updated: Wed, 23-Apr-2014 1:50pm EDT
Partly cloudy
Partly cloudy
 Wind from NW
Wind: NW 17 mph , 28 km/h, Gust: 30 mph , 48 km/h
Temperature: 59°F , 15°C
Dew Point: 39°F , 4°C
Humidity: 48%
Barometer: 29.81 inHg , 1009.5 hPa
Clouds: Partly cloudy
Visibility: 10 miles , 16 km
Cloud details: Partly cloudy 4700 ft
2014/04/23 17:50 KESN 231750Z 32015G26KT 10SM SCT047 15/04 A2981
KDCA - Washington/Natl, Washington D.c., USA
Distance from station: SW 49mi, 79km
Updated: Wed, 23-Apr-2014 1:52pm EDT
Partly cloudy
Partly cloudy
 Wind from NW
Wind: NW 20 mph , 31 km/h, Gust: 30 mph , 48 km/h
Temperature: 61°F , 16°C
Dew Point: 36°F , 2°C
Humidity: 39%
Barometer: 29.83 inHg , 1010.2 hPa
Clouds: Partly cloudy
Visibility: 10 miles , 16 km
Cloud details: Partly cloudy 5500 ft
2014/04/23 17:52 KDCA 231752Z 31017G26KT 10SM SCT055 16/02 A2983 RMK AO2 PK WND 34035/1708 SLP100 T01610022 10161 20111 57001
 
KLNS - Lancaster, Pennsylvania, USA
Distance from station: N 49mi, 79km
Updated: Wed, 23-Apr-2014 1:53pm EDT
Mostly cloudy
Mostly cloudy
 Wind from NNW
Wind: NNW 25 mph , 41 km/h, Gust: 33 mph , 54 km/h
Temperature: 55°F , 13°C
Dew Point: 36°F , 2°C
Humidity: 47%
Barometer: 29.76 inHg , 1007.8 hPa
Clouds: Mostly cloudy
Visibility: 10 miles , 16 km
Cloud details: Mostly cloudy 4900 ft
2014/04/23 17:53 KLNS 231753Z 33022G29KT 10SM BKN049 13/02 A2976 RMK AO2 PK WND 32030/1715 SLP079 T01280022 10133 20078 53002
KILG - Wilmington, Delaware, USA
Distance from station: ENE 50mi, 81km
Updated: Wed, 23-Apr-2014 1:51pm EDT
Mostly cloudy
Mostly cloudy
 Wind from NW
Wind: NW 23 mph , 37 km/h, Gust: 36 mph , 57 km/h
Temperature: 57°F , 14°C
Dew Point: 36°F , 2°C
Humidity: 44%
Barometer: 29.73 inHg , 1006.8 hPa
Clouds: Mostly cloudy
Visibility: 10 miles , 16 km
Cloud details: Mostly cloudy 5000 ft
2014/04/23 17:51 KILG 231751Z 31020G31KT 10SM BKN050 14/02 A2973 RMK AO2 PK WND 30031/1746 SLP068 T01440022 10144 20100 58001